sensor_id;sensor_type;location;lat;lon;timestamp;P1;durP1;ratioP1;P2;durP2;ratioP2
8279;SDS011;8335;42.646;23.380;2023-04-08T00:02:14;20.23;;;14.30;;
8279;SDS011;8335;42.646;23.380;2023-04-08T00:04:41;18.07;;;13.80;;
8279;SDS011;8335;42.646;23.380;2023-04-08T00:07:08;19.57;;;13.83;;
8279;SDS011;8335;42.646;23.380;2023-04-08T00:09:34;20.10;;;14.13;;
8279;SDS011;8335;42.646;23.380;2023-04-08T00:12:01;19.13;;;13.70;;
8279;SDS011;8335;42.646;23.380;2023-04-08T00:14:28;19.30;;;13.77;;
8279;SDS011;8335;42.646;23.380;2023-04-08T00:16:56;20.50;;;13.40;;
8279;SDS011;8335;42.646;23.380;2023-04-08T00:19:23;20.90;;;13.73;;
8279;SDS011;8335;42.646;23.380;2023-04-08T00:21:50;18.47;;;13.57;;
8279;SDS011;8335;42.646;23.380;2023-04-08T00:24:17;19.40;;;14.00;;
8279;SDS011;8335;42.646;23.380;2023-04-08T00:26:44;19.00;;;14.13;;
8279;SDS011;8335;42.646;23.380;2023-04-08T00:29:11;21.67;;;14.00;;
8279;SDS011;8335;42.646;23.380;2023-04-08T00:31:37;18.17;;;12.70;;
8279;SDS011;8335;42.646;23.380;2023-04-08T00:34:06;17.93;;;12.67;;
8279;SDS011;8335;42.646;23.380;2023-04-08T00:36:32;16.47;;;12.10;;
8279;SDS011;8335;42.646;23.380;2023-04-08T00:39:00;18.30;;;12.53;;
8279;SDS011;8335;42.646;23.380;2023-04-08T00:41:28;18.40;;;12.77;;
8279;SDS011;8335;42.646;23.380;2023-04-08T00:43:55;20.27;;;14.70;;
8279;SDS011;8335;42.646;23.380;2023-04-08T00:46:21;20.53;;;14.53;;
8279;SDS011;8335;42.646;23.380;2023-04-08T00:48:48;23.07;;;15.23;;
8279;SDS011;8335;42.646;23.380;2023-04-08T00:51:16;25.93;;;17.10;;
8279;SDS011;8335;42.646;23.380;2023-04-08T00:53:43;34.63;;;19.10;;
8279;SDS011;8335;42.646;23.380;2023-04-08T00:56:10;27.97;;;18.90;;
8279;SDS011;8335;42.646;23.380;2023-04-08T00:58:37;28.47;;;18.47;;
8279;SDS011;8335;42.646;23.380;2023-04-08T01:01:04;30.97;;;19.10;;
8279;SDS011;8335;42.646;23.380;2023-04-08T01:03:38;33.50;;;18.53;;
8279;SDS011;8335;42.646;23.380;2023-04-08T01:06:12;31.67;;;18.67;;
8279;SDS011;8335;42.646;23.380;2023-04-08T01:08:45;30.53;;;19.67;;
8279;SDS011;8335;42.646;23.380;2023-04-08T01:11:13;30.73;;;20.97;;
8279;SDS011;8335;42.646;23.380;2023-04-08T01:13:41;33.83;;;21.60;;
8279;SDS011;8335;42.646;23.380;2023-04-08T01:16:10;28.00;;;19.40;;
8279;SDS011;8335;42.646;23.380;2023-04-08T01:18:39;29.20;;;19.93;;
8279;SDS011;8335;42.646;23.380;2023-04-08T01:21:07;30.90;;;19.93;;
8279;SDS011;8335;42.646;23.380;2023-04-08T01:23:37;34.03;;;20.47;;
8279;SDS011;8335;42.646;23.380;2023-04-08T01:26:11;29.10;;;18.60;;
8279;SDS011;8335;42.646;23.380;2023-04-08T01:28:46;28.03;;;18.37;;
8279;SDS011;8335;42.646;23.380;2023-04-08T01:31:16;23.33;;;17.10;;
8279;SDS011;8335;42.646;23.380;2023-04-08T01:33:44;23.47;;;16.00;;
8279;SDS011;8335;42.646;23.380;2023-04-08T01:36:11;23.67;;;16.40;;
8279;SDS011;8335;42.646;23.380;2023-04-08T01:38:40;21.90;;;14.70;;
8279;SDS011;8335;42.646;23.380;2023-04-08T01:41:07;23.77;;;14.63;;
8279;SDS011;8335;42.646;23.380;2023-04-08T01:43:37;20.73;;;14.20;;
8279;SDS011;8335;42.646;23.380;2023-04-08T01:46:05;21.30;;;14.50;;
8279;SDS011;8335;42.646;23.380;2023-04-08T01:48:35;19.73;;;13.73;;
8279;SDS011;8335;42.646;23.380;2023-04-08T01:51:03;20.07;;;13.90;;
8279;SDS011;8335;42.646;23.380;2023-04-08T01:53:30;20.03;;;14.27;;
8279;SDS011;8335;42.646;23.380;2023-04-08T01:56:05;17.97;;;13.80;;
8279;SDS011;8335;42.646;23.380;2023-04-08T01:58:38;19.03;;;13.83;;
8279;SDS011;8335;42.646;23.380;2023-04-08T02:01:09;18.60;;;13.70;;
8279;SDS011;8335;42.646;23.380;2023-04-08T02:03:37;18.50;;;12.77;;
8279;SDS011;8335;42.646;23.380;2023-04-08T02:06:07;16.67;;;12.13;;
8279;SDS011;8335;42.646;23.380;2023-04-08T02:08:34;20.67;;;13.40;;
8279;SDS011;8335;42.646;23.380;2023-04-08T02:11:01;18.70;;;13.57;;
8279;SDS011;8335;42.646;23.380;2023-04-08T02:13:28;19.80;;;13.43;;
8279;SDS011;8335;42.646;23.380;2023-04-08T02:15:59;17.63;;;12.57;;
8279;SDS011;8335;42.646;23.380;2023-04-08T02:18:29;19.40;;;13.30;;
8279;SDS011;8335;42.646;23.380;2023-04-08T02:21:02;17.30;;;12.03;;
8279;SDS011;8335;42.646;23.380;2023-04-08T02:23:32;20.23;;;13.00;;
8279;SDS011;8335;42.646;23.380;2023-04-08T02:26:03;19.13;;;13.10;;
8279;SDS011;8335;42.646;23.380;2023-04-08T02:28:33;16.80;;;12.03;;
8279;SDS011;8335;42.646;23.380;2023-04-08T02:31:02;19.07;;;12.63;;
8279;SDS011;8335;42.646;23.380;2023-04-08T02:33:31;18.47;;;13.50;;
8279;SDS011;8335;42.646;23.380;2023-04-08T02:36:00;19.40;;;11.97;;
8279;SDS011;8335;42.646;23.380;2023-04-08T02:38:29;17.73;;;12.50;;
8279;SDS011;8335;42.646;23.380;2023-04-08T02:40:56;15.03;;;12.03;;
8279;SDS011;8335;42.646;23.380;2023-04-08T02:43:23;20.50;;;13.20;;
8279;SDS011;8335;42.646;23.380;2023-04-08T02:45:56;15.83;;;12.43;;
8279;SDS011;8335;42.646;23.380;2023-04-08T02:48:24;18.60;;;12.90;;
8279;SDS011;8335;42.646;23.380;2023-04-08T02:50:51;17.97;;;12.70;;
8279;SDS011;8335;42.646;23.380;2023-04-08T02:53:18;17.60;;;13.17;;
8279;SDS011;8335;42.646;23.380;2023-04-08T02:55:45;18.57;;;13.47;;
8279;SDS011;8335;42.646;23.380;2023-04-08T02:58:11;19.97;;;13.43;;
8279;SDS011;8335;42.646;23.380;2023-04-08T03:00:38;18.67;;;12.50;;
8279;SDS011;8335;42.646;23.380;2023-04-08T03:03:05;17.97;;;13.00;;
8279;SDS011;8335;42.646;23.380;2023-04-08T03:05:33;17.27;;;12.70;;
8279;SDS011;8335;42.646;23.380;2023-04-08T03:08:00;14.93;;;11.60;;
8279;SDS011;8335;42.646;23.380;2023-04-08T03:10:27;17.37;;;13.37;;
8279;SDS011;8335;42.646;23.380;2023-04-08T03:12:54;17.37;;;12.90;;
8279;SDS011;8335;42.646;23.380;2023-04-08T03:15:20;18.27;;;13.50;;
8279;SDS011;8335;42.646;23.380;2023-04-08T03:17:47;20.53;;;13.97;;
8279;SDS011;8335;42.646;23.380;2023-04-08T03:20:14;19.40;;;13.27;;
8279;SDS011;8335;42.646;23.380;2023-04-08T03:22:42;19.47;;;13.37;;
8279;SDS011;8335;42.646;23.380;2023-04-08T03:25:08;19.90;;;14.37;;
8279;SDS011;8335;42.646;23.380;2023-04-08T03:27:35;25.97;;;18.17;;
8279;SDS011;8335;42.646;23.380;2023-04-08T03:30:02;23.50;;;15.97;;
8279;SDS011;8335;42.646;23.380;2023-04-08T03:32:29;22.23;;;15.23;;
8279;SDS011;8335;42.646;23.380;2023-04-08T03:34:56;24.00;;;13.77;;
8279;SDS011;8335;42.646;23.380;2023-04-08T03:37:23;22.97;;;15.50;;
8279;SDS011;8335;42.646;23.380;2023-04-08T03:39:51;20.73;;;14.57;;
8279;SDS011;8335;42.646;23.380;2023-04-08T03:42:18;24.23;;;17.17;;
8279;SDS011;8335;42.646;23.380;2023-04-08T03:44:45;26.63;;;17.17;;
8279;SDS011;8335;42.646;23.380;2023-04-08T03:47:12;27.87;;;18.10;;
8279;SDS011;8335;42.646;23.380;2023-04-08T03:49:38;25.43;;;18.27;;
8279;SDS011;8335;42.646;23.380;2023-04-08T03:52:05;26.53;;;18.40;;
8279;SDS011;8335;42.646;23.380;2023-04-08T03:54:32;26.50;;;18.40;;
8279;SDS011;8335;42.646;23.380;2023-04-08T03:57:00;30.37;;;19.37;;
8279;SDS011;8335;42.646;23.380;2023-04-08T03:59:27;49.67;;;31.83;;
8279;SDS011;8335;42.646;23.380;2023-04-08T04:01:53;53.30;;;34.03;;
8279;SDS011;8335;42.646;23.380;2023-04-08T04:04:20;42.47;;;27.57;;
8279;SDS011;8335;42.646;23.380;2023-04-08T04:06:47;34.93;;;23.87;;
8279;SDS011;8335;42.646;23.380;2023-04-08T04:09:14;36.47;;;24.60;;
8279;SDS011;8335;42.646;23.380;2023-04-08T04:11:41;41.03;;;24.60;;
8279;SDS011;8335;42.646;23.380;2023-04-08T04:14:09;30.20;;;20.33;;
8279;SDS011;8335;42.646;23.380;2023-04-08T04:16:35;28.33;;;18.17;;
8279;SDS011;8335;42.646;23.380;2023-04-08T04:19:02;27.93;;;18.50;;
8279;SDS011;8335;42.646;23.380;2023-04-08T04:21:29;29.33;;;18.07;;
8279;SDS011;8335;42.646;23.380;2023-04-08T04:23:55;30.23;;;17.20;;
8279;SDS011;8335;42.646;23.380;2023-04-08T04:26:22;26.50;;;19.13;;
8279;SDS011;8335;42.646;23.380;2023-04-08T04:28:49;25.10;;;17.40;;
8279;SDS011;8335;42.646;23.380;2023-04-08T04:31:20;28.40;;;17.83;;
8279;SDS011;8335;42.646;23.380;2023-04-08T04:33:50;27.00;;;18.00;;
8279;SDS011;8335;42.646;23.380;2023-04-08T04:36:17;26.20;;;17.33;;
8279;SDS011;8335;42.646;23.380;2023-04-08T04:38:44;29.97;;;17.43;;
8279;SDS011;8335;42.646;23.380;2023-04-08T04:41:11;29.23;;;18.70;;
8279;SDS011;8335;42.646;23.380;2023-04-08T04:43:38;29.27;;;18.30;;
8279;SDS011;8335;42.646;23.380;2023-04-08T04:46:05;34.23;;;18.83;;
8279;SDS011;8335;42.646;23.380;2023-04-08T04:48:34;27.37;;;18.57;;
8279;SDS011;8335;42.646;23.380;2023-04-08T04:51:01;27.50;;;18.57;;
8279;SDS011;8335;42.646;23.380;2023-04-08T04:53:28;23.77;;;17.47;;
8279;SDS011;8335;42.646;23.380;2023-04-08T04:55:55;27.67;;;18.57;;
8279;SDS011;8335;42.646;23.380;2023-04-08T04:58:22;25.70;;;17.23;;
8279;SDS011;8335;42.646;23.380;2023-04-08T05:00:49;28.97;;;19.50;;
8279;SDS011;8335;42.646;23.380;2023-04-08T05:03:16;26.40;;;18.27;;
8279;SDS011;8335;42.646;23.380;2023-04-08T05:05:44;31.90;;;20.23;;
8279;SDS011;8335;42.646;23.380;2023-04-08T05:08:15;28.53;;;17.77;;
8279;SDS011;8335;42.646;23.380;2023-04-08T05:10:42;29.53;;;18.87;;
8279;SDS011;8335;42.646;23.380;2023-04-08T05:13:09;24.43;;;17.30;;
8279;SDS011;8335;42.646;23.380;2023-04-08T05:15:35;27.17;;;17.90;;
8279;SDS011;8335;42.646;23.380;2023-04-08T05:18:02;29.73;;;17.77;;
8279;SDS011;8335;42.646;23.380;2023-04-08T05:20:29;30.97;;;19.40;;
8279;SDS011;8335;42.646;23.380;2023-04-08T05:22:57;28.90;;;17.73;;
8279;SDS011;8335;42.646;23.380;2023-04-08T05:25:24;28.83;;;18.37;;
8279;SDS011;8335;42.646;23.380;2023-04-08T05:27:51;25.00;;;16.97;;
8279;SDS011;8335;42.646;23.380;2023-04-08T05:30:18;28.60;;;17.63;;
8279;SDS011;8335;42.646;23.380;2023-04-08T05:32:45;26.27;;;18.40;;
8279;SDS011;8335;42.646;23.380;2023-04-08T05:35:11;28.70;;;17.40;;
8279;SDS011;8335;42.646;23.380;2023-04-08T05:37:38;26.83;;;18.47;;
8279;SDS011;8335;42.646;23.380;2023-04-08T05:40:07;35.33;;;19.03;;
8279;SDS011;8335;42.646;23.380;2023-04-08T05:42:34;32.23;;;19.37;;
8279;SDS011;8335;42.646;23.380;2023-04-08T05:45:01;27.60;;;17.67;;
8279;SDS011;8335;42.646;23.380;2023-04-08T05:47:28;31.85;;;21.35;;
8279;SDS011;8335;42.646;23.380;2023-04-08T05:49:54;29.83;;;20.33;;
8279;SDS011;8335;42.646;23.380;2023-04-08T05:52:21;31.30;;;19.07;;
8279;SDS011;8335;42.646;23.380;2023-04-08T05:54:48;33.47;;;18.17;;
8279;SDS011;8335;42.646;23.380;2023-04-08T05:57:16;24.67;;;17.17;;
8279;SDS011;8335;42.646;23.380;2023-04-08T05:59:43;27.00;;;16.87;;
8279;SDS011;8335;42.646;23.380;2023-04-08T06:02:10;26.17;;;16.40;;
8279;SDS011;8335;42.646;23.380;2023-04-08T06:04:36;24.20;;;16.13;;
8279;SDS011;8335;42.646;23.380;2023-04-08T06:07:03;21.13;;;16.23;;
8279;SDS011;8335;42.646;23.380;2023-04-08T06:09:33;24.00;;;16.17;;
8279;SDS011;8335;42.646;23.380;2023-04-08T06:12:01;20.70;;;15.40;;
8279;SDS011;8335;42.646;23.380;2023-04-08T06:14:29;18.87;;;14.70;;
8279;SDS011;8335;42.646;23.380;2023-04-08T06:16:56;20.63;;;14.13;;
8279;SDS011;8335;42.646;23.380;2023-04-08T06:19:22;21.10;;;14.90;;
8279;SDS011;8335;42.646;23.380;2023-04-08T06:21:50;20.67;;;15.17;;
8279;SDS011;8335;42.646;23.380;2023-04-08T06:24:16;22.33;;;14.33;;
8279;SDS011;8335;42.646;23.380;2023-04-08T06:26:43;26.30;;;14.97;;
8279;SDS011;8335;42.646;23.380;2023-04-08T06:29:10;25.10;;;15.30;;
8279;SDS011;8335;42.646;23.380;2023-04-08T06:31:38;20.80;;;15.13;;
8279;SDS011;8335;42.646;23.380;2023-04-08T06:34:05;21.13;;;14.97;;
8279;SDS011;8335;42.646;23.380;2023-04-08T06:36:32;23.07;;;15.20;;
8279;SDS011;8335;42.646;23.380;2023-04-08T06:38:59;30.00;;;16.00;;
8279;SDS011;8335;42.646;23.380;2023-04-08T06:41:25;24.63;;;15.07;;
8279;SDS011;8335;42.646;23.380;2023-04-08T06:43:52;24.30;;;15.30;;
8279;SDS011;8335;42.646;23.380;2023-04-08T06:46:19;23.60;;;14.30;;
8279;SDS011;8335;42.646;23.380;2023-04-08T06:48:47;25.30;;;15.57;;
8279;SDS011;8335;42.646;23.380;2023-04-08T06:51:14;25.90;;;14.80;;
8279;SDS011;8335;42.646;23.380;2023-04-08T06:53:41;19.10;;;14.53;;
8279;SDS011;8335;42.646;23.380;2023-04-08T06:56:07;19.60;;;14.47;;
8279;SDS011;8335;42.646;23.380;2023-04-08T06:58:35;21.87;;;14.00;;
8279;SDS011;8335;42.646;23.380;2023-04-08T07:01:02;20.53;;;13.70;;
8279;SDS011;8335;42.646;23.380;2023-04-08T07:03:29;19.43;;;14.43;;
8279;SDS011;8335;42.646;23.380;2023-04-08T07:05:57;20.67;;;13.80;;
8279;SDS011;8335;42.646;23.380;2023-04-08T07:08:23;18.97;;;14.23;;
8279;SDS011;8335;42.646;23.380;2023-04-08T07:10:51;23.93;;;14.03;;
8279;SDS011;8335;42.646;23.380;2023-04-08T07:13:18;22.53;;;14.03;;
8279;SDS011;8335;42.646;23.380;2023-04-08T07:15:45;22.23;;;14.07;;
8279;SDS011;8335;42.646;23.380;2023-04-08T07:18:12;18.93;;;14.37;;
8279;SDS011;8335;42.646;23.380;2023-04-08T07:20:39;22.10;;;14.87;;
8279;SDS011;8335;42.646;23.380;2023-04-08T07:23:07;19.73;;;13.67;;
8279;SDS011;8335;42.646;23.380;2023-04-08T07:25:34;19.87;;;14.27;;
8279;SDS011;8335;42.646;23.380;2023-04-08T07:28:01;20.97;;;14.60;;
8279;SDS011;8335;42.646;23.380;2023-04-08T07:30:28;21.33;;;14.93;;
8279;SDS011;8335;42.646;23.380;2023-04-08T07:32:55;17.90;;;13.93;;
8279;SDS011;8335;42.646;23.380;2023-04-08T07:35:22;22.93;;;14.37;;
8279;SDS011;8335;42.646;23.380;2023-04-08T07:37:50;24.13;;;14.03;;
8279;SDS011;8335;42.646;23.380;2023-04-08T07:40:18;18.83;;;13.27;;
8279;SDS011;8335;42.646;23.380;2023-04-08T07:42:45;20.20;;;13.67;;
8279;SDS011;8335;42.646;23.380;2023-04-08T07:45:13;19.63;;;14.23;;
8279;SDS011;8335;42.646;23.380;2023-04-08T07:47:40;22.13;;;13.50;;
8279;SDS011;8335;42.646;23.380;2023-04-08T07:50:07;17.13;;;12.90;;
8279;SDS011;8335;42.646;23.380;2023-04-08T07:52:34;19.50;;;14.30;;
8279;SDS011;8335;42.646;23.380;2023-04-08T07:55:00;18.43;;;14.23;;
8279;SDS011;8335;42.646;23.380;2023-04-08T07:57:29;18.27;;;13.73;;
8279;SDS011;8335;42.646;23.380;2023-04-08T07:59:55;22.03;;;13.40;;
8279;SDS011;8335;42.646;23.380;2023-04-08T08:02:22;18.40;;;13.97;;
8279;SDS011;8335;42.646;23.380;2023-04-08T08:04:49;18.77;;;13.93;;
8279;SDS011;8335;42.646;23.380;2023-04-08T08:07:16;17.30;;;12.40;;
8279;SDS011;8335;42.646;23.380;2023-04-08T08:09:43;19.10;;;12.37;;
8279;SDS011;8335;42.646;23.380;2023-04-08T08:12:09;17.23;;;12.57;;
8279;SDS011;8335;42.646;23.380;2023-04-08T08:14:38;19.13;;;12.90;;
8279;SDS011;8335;42.646;23.380;2023-04-08T08:17:05;17.23;;;12.90;;
8279;SDS011;8335;42.646;23.380;2023-04-08T08:19:32;18.03;;;12.07;;
8279;SDS011;8335;42.646;23.380;2023-04-08T08:21:58;21.87;;;13.03;;
8279;SDS011;8335;42.646;23.380;2023-04-08T08:24:25;17.83;;;12.40;;
8279;SDS011;8335;42.646;23.380;2023-04-08T08:26:52;15.03;;;12.23;;
8279;SDS011;8335;42.646;23.380;2023-04-08T08:29:19;14.70;;;12.07;;
8279;SDS011;8335;42.646;23.380;2023-04-08T08:31:47;16.80;;;11.10;;
8279;SDS011;8335;42.646;23.380;2023-04-08T08:34:13;16.23;;;12.90;;
8279;SDS011;8335;42.646;23.380;2023-04-08T08:36:40;20.80;;;14.87;;
8279;SDS011;8335;42.646;23.380;2023-04-08T08:39:07;18.57;;;13.60;;
8279;SDS011;8335;42.646;23.380;2023-04-08T08:41:33;22.83;;;14.57;;
8279;SDS011;8335;42.646;23.380;2023-04-08T08:44:01;21.13;;;13.93;;
8279;SDS011;8335;42.646;23.380;2023-04-08T08:46:31;19.70;;;13.93;;
8279;SDS011;8335;42.646;23.380;2023-04-08T08:48:59;21.13;;;14.00;;
8279;SDS011;8335;42.646;23.380;2023-04-08T08:51:26;21.13;;;14.97;;
8279;SDS011;8335;42.646;23.380;2023-04-08T08:53:56;22.17;;;15.17;;
8279;SDS011;8335;42.646;23.380;2023-04-08T08:56:26;20.00;;;14.60;;
8279;SDS011;8335;42.646;23.380;2023-04-08T08:58:53;23.20;;;15.60;;
8279;SDS011;8335;42.646;23.380;2023-04-08T09:01:29;26.03;;;15.70;;
8279;SDS011;8335;42.646;23.380;2023-04-08T09:04:08;21.47;;;15.50;;
8279;SDS011;8335;42.646;23.380;2023-04-08T09:06:40;22.47;;;16.00;;
8279;SDS011;8335;42.646;23.380;2023-04-08T09:09:08;22.67;;;15.23;;
8279;SDS011;8335;42.646;23.380;2023-04-08T09:11:38;22.13;;;14.57;;
8279;SDS011;8335;42.646;23.380;2023-04-08T09:14:16;21.80;;;14.10;;
8279;SDS011;8335;42.646;23.380;2023-04-08T09:16:43;19.40;;;13.20;;
8279;SDS011;8335;42.646;23.380;2023-04-08T09:19:12;16.40;;;12.60;;
8279;SDS011;8335;42.646;23.380;2023-04-08T09:21:38;25.30;;;14.60;;
8279;SDS011;8335;42.646;23.380;2023-04-08T09:24:06;22.67;;;15.47;;
8279;SDS011;8335;42.646;23.380;2023-04-08T09:26:33;19.37;;;14.33;;
8279;SDS011;8335;42.646;23.380;2023-04-08T09:29:02;20.17;;;12.80;;
8279;SDS011;8335;42.646;23.380;2023-04-08T09:31:31;20.40;;;13.50;;
8279;SDS011;8335;42.646;23.380;2023-04-08T09:34:08;22.17;;;14.40;;
8279;SDS011;8335;42.646;23.380;2023-04-08T09:36:38;23.80;;;14.00;;
8279;SDS011;8335;42.646;23.380;2023-04-08T09:39:04;21.73;;;14.10;;
8279;SDS011;8335;42.646;23.380;2023-04-08T09:41:32;21.03;;;13.43;;
8279;SDS011;8335;42.646;23.380;2023-04-08T09:44:02;21.40;;;13.47;;
8279;SDS011;8335;42.646;23.380;2023-04-08T09:46:32;19.90;;;13.50;;
8279;SDS011;8335;42.646;23.380;2023-04-08T09:49:05;18.23;;;12.53;;
8279;SDS011;8335;42.646;23.380;2023-04-08T09:51:38;19.23;;;13.70;;
8279;SDS011;8335;42.646;23.380;2023-04-08T09:54:18;19.70;;;13.07;;
8279;SDS011;8335;42.646;23.380;2023-04-08T09:56:48;16.80;;;12.47;;
8279;SDS011;8335;42.646;23.380;2023-04-08T09:59:27;17.13;;;12.73;;
8279;SDS011;8335;42.646;23.380;2023-04-08T10:01:58;17.70;;;13.50;;
8279;SDS011;8335;42.646;23.380;2023-04-08T10:04:29;20.05;;;12.48;;
8279;SDS011;8335;42.646;23.380;2023-04-08T10:07:03;18.17;;;12.95;;
8279;SDS011;8335;42.646;23.380;2023-04-08T10:09:32;22.67;;;13.70;;
8279;SDS011;8335;42.646;23.380;2023-04-08T10:11:59;17.00;;;12.70;;
8279;SDS011;8335;42.646;23.380;2023-04-08T10:14:27;16.20;;;12.57;;
8279;SDS011;8335;42.646;23.380;2023-04-08T10:19:51;18.47;;;12.37;;
8279;SDS011;8335;42.646;23.380;2023-04-08T10:25:30;18.57;;;12.77;;
8279;SDS011;8335;42.646;23.380;2023-04-08T10:27:57;24.70;;;12.97;;
8279;SDS011;8335;42.646;23.380;2023-04-08T10:30:37;19.27;;;12.80;;
8279;SDS011;8335;42.646;23.380;2023-04-08T10:33:08;19.63;;;12.93;;
8279;SDS011;8335;42.646;23.380;2023-04-08T10:35:36;18.80;;;12.80;;
8279;SDS011;8335;42.646;23.380;2023-04-08T10:38:07;21.73;;;14.20;;
8279;SDS011;8335;42.646;23.380;2023-04-08T10:40:35;18.50;;;12.83;;
8279;SDS011;8335;42.646;23.380;2023-04-08T10:43:05;18.80;;;13.00;;
8279;SDS011;8335;42.646;23.380;2023-04-08T10:45:32;21.93;;;14.83;;
8279;SDS011;8335;42.646;23.380;2023-04-08T10:48:10;20.10;;;14.27;;
8279;SDS011;8335;42.646;23.380;2023-04-08T10:50:37;19.13;;;12.67;;
8279;SDS011;8335;42.646;23.380;2023-04-08T10:53:05;16.60;;;11.27;;
8279;SDS011;8335;42.646;23.380;2023-04-08T10:55:33;19.30;;;12.90;;
8279;SDS011;8335;42.646;23.380;2023-04-08T10:58:06;22.60;;;12.97;;
8279;SDS011;8335;42.646;23.380;2023-04-08T11:00:34;17.40;;;12.03;;
8279;SDS011;8335;42.646;23.380;2023-04-08T11:03:02;20.63;;;13.37;;
8279;SDS011;8335;42.646;23.380;2023-04-08T11:05:30;19.40;;;12.10;;
8279;SDS011;8335;42.646;23.380;2023-04-08T11:07:57;18.23;;;11.70;;
8279;SDS011;8335;42.646;23.380;2023-04-08T11:10:23;19.60;;;12.30;;
8279;SDS011;8335;42.646;23.380;2023-04-08T11:12:54;16.20;;;11.40;;
8279;SDS011;8335;42.646;23.380;2023-04-08T11:15:21;17.33;;;11.73;;
8279;SDS011;8335;42.646;23.380;2023-04-08T11:17:50;17.17;;;11.43;;
8279;SDS011;8335;42.646;23.380;2023-04-08T11:20:18;16.83;;;11.93;;
8279;SDS011;8335;42.646;23.380;2023-04-08T11:22:44;14.83;;;11.27;;
8279;SDS011;8335;42.646;23.380;2023-04-08T11:25:12;15.50;;;10.50;;
8279;SDS011;8335;42.646;23.380;2023-04-08T11:27:39;17.20;;;10.83;;
8279;SDS011;8335;42.646;23.380;2023-04-08T11:30:08;16.67;;;11.27;;
8279;SDS011;8335;42.646;23.380;2023-04-08T11:32:36;15.40;;;10.57;;
8279;SDS011;8335;42.646;23.380;2023-04-08T11:35:04;14.37;;;10.80;;
8279;SDS011;8335;42.646;23.380;2023-04-08T11:37:37;14.33;;;9.90;;
8279;SDS011;8335;42.646;23.380;2023-04-08T11:40:06;14.53;;;10.17;;
8279;SDS011;8335;42.646;23.380;2023-04-08T11:42:34;14.60;;;9.80;;
8279;SDS011;8335;42.646;23.380;2023-04-08T11:45:00;12.53;;;9.30;;
8279;SDS011;8335;42.646;23.380;2023-04-08T11:47:32;15.57;;;10.67;;
8279;SDS011;8335;42.646;23.380;2023-04-08T11:49:59;15.63;;;11.37;;
8279;SDS011;8335;42.646;23.380;2023-04-08T11:52:39;15.77;;;11.33;;
8279;SDS011;8335;42.646;23.380;2023-04-08T11:55:10;16.93;;;11.07;;
8279;SDS011;8335;42.646;23.380;2023-04-08T11:57:37;14.57;;;10.57;;
8279;SDS011;8335;42.646;23.380;2023-04-08T12:00:04;15.87;;;11.10;;
8279;SDS011;8335;42.646;23.380;2023-04-08T12:02:33;14.03;;;10.73;;
8279;SDS011;8335;42.646;23.380;2023-04-08T12:05:00;17.23;;;10.80;;
8279;SDS011;8335;42.646;23.380;2023-04-08T12:07:27;13.97;;;11.20;;
8279;SDS011;8335;42.646;23.380;2023-04-08T12:09:54;16.47;;;10.83;;
8279;SDS011;8335;42.646;23.380;2023-04-08T12:12:23;14.80;;;10.83;;
8279;SDS011;8335;42.646;23.380;2023-04-08T12:14:50;16.47;;;9.77;;
8279;SDS011;8335;42.646;23.380;2023-04-08T12:17:17;15.20;;;9.03;;
8279;SDS011;8335;42.646;23.380;2023-04-08T12:19:45;14.03;;;8.23;;
8279;SDS011;8335;42.646;23.380;2023-04-08T12:22:12;12.53;;;8.30;;
8279;SDS011;8335;42.646;23.380;2023-04-08T12:24:38;12.33;;;8.47;;
8279;SDS011;8335;42.646;23.380;2023-04-08T12:27:05;12.70;;;9.43;;
8279;SDS011;8335;42.646;23.380;2023-04-08T12:29:32;9.53;;;8.30;;
8279;SDS011;8335;42.646;23.380;2023-04-08T12:31:59;9.73;;;8.20;;
8279;SDS011;8335;42.646;23.380;2023-04-08T12:34:26;11.90;;;9.03;;
8279;SDS011;8335;42.646;23.380;2023-04-08T12:36:54;11.20;;;8.73;;
8279;SDS011;8335;42.646;23.380;2023-04-08T12:39:21;13.33;;;8.70;;
8279;SDS011;8335;42.646;23.380;2023-04-08T12:41:48;13.17;;;8.37;;
8279;SDS011;8335;42.646;23.380;2023-04-08T12:44:14;11.00;;;8.53;;
8279;SDS011;8335;42.646;23.380;2023-04-08T12:46:41;11.30;;;8.23;;
8279;SDS011;8335;42.646;23.380;2023-04-08T12:49:08;11.57;;;8.20;;
8279;SDS011;8335;42.646;23.380;2023-04-08T12:51:36;11.57;;;8.53;;
8279;SDS011;8335;42.646;23.380;2023-04-08T12:54:04;11.83;;;8.50;;
8279;SDS011;8335;42.646;23.380;2023-04-08T12:56:31;11.87;;;8.40;;
8279;SDS011;8335;42.646;23.380;2023-04-08T12:58:58;11.23;;;8.97;;
8279;SDS011;8335;42.646;23.380;2023-04-08T13:01:25;10.63;;;8.87;;
8279;SDS011;8335;42.646;23.380;2023-04-08T13:03:52;10.73;;;8.67;;
8279;SDS011;8335;42.646;23.380;2023-04-08T13:06:19;11.43;;;8.60;;
8279;SDS011;8335;42.646;23.380;2023-04-08T13:08:46;14.20;;;8.23;;
8279;SDS011;8335;42.646;23.380;2023-04-08T13:11:14;10.63;;;8.33;;
8279;SDS011;8335;42.646;23.380;2023-04-08T13:13:41;12.50;;;9.37;;
8279;SDS011;8335;42.646;23.380;2023-04-08T13:16:08;12.90;;;9.40;;
8279;SDS011;8335;42.646;23.380;2023-04-08T13:18:34;10.60;;;8.27;;
8279;SDS011;8335;42.646;23.380;2023-04-08T13:21:01;10.60;;;8.37;;
8279;SDS011;8335;42.646;23.380;2023-04-08T13:23:28;10.83;;;8.27;;
8279;SDS011;8335;42.646;23.380;2023-04-08T13:25:55;10.93;;;9.07;;
8279;SDS011;8335;42.646;23.380;2023-04-08T13:28:23;13.57;;;9.50;;
8279;SDS011;8335;42.646;23.380;2023-04-08T13:30:50;11.37;;;8.97;;
8279;SDS011;8335;42.646;23.380;2023-04-08T13:33:17;12.10;;;9.60;;
8279;SDS011;8335;42.646;23.380;2023-04-08T13:35:44;14.27;;;8.73;;
8279;SDS011;8335;42.646;23.380;2023-04-08T13:38:11;11.83;;;9.50;;
8279;SDS011;8335;42.646;23.380;2023-04-08T13:40:37;10.90;;;9.00;;
8279;SDS011;8335;42.646;23.380;2023-04-08T13:43:04;12.27;;;9.33;;
8279;SDS011;8335;42.646;23.380;2023-04-08T13:45:33;12.03;;;8.73;;
8279;SDS011;8335;42.646;23.380;2023-04-08T13:48:00;11.80;;;7.83;;
8279;SDS011;8335;42.646;23.380;2023-04-08T13:50:27;13.00;;;9.23;;
8279;SDS011;8335;42.646;23.380;2023-04-08T13:52:53;13.37;;;9.13;;
8279;SDS011;8335;42.646;23.380;2023-04-08T13:55:21;10.93;;;8.17;;
8279;SDS011;8335;42.646;23.380;2023-04-08T13:57:47;12.77;;;8.87;;
8279;SDS011;8335;42.646;23.380;2023-04-08T14:00:14;14.60;;;9.60;;
8279;SDS011;8335;42.646;23.380;2023-04-08T14:02:42;14.13;;;9.80;;
8279;SDS011;8335;42.646;23.380;2023-04-08T14:05:10;14.30;;;10.80;;
8279;SDS011;8335;42.646;23.380;2023-04-08T14:07:36;14.00;;;10.57;;
8279;SDS011;8335;42.646;23.380;2023-04-08T14:10:03;11.67;;;9.30;;
8279;SDS011;8335;42.646;23.380;2023-04-08T14:12:31;12.43;;;9.67;;
8279;SDS011;8335;42.646;23.380;2023-04-08T14:14:58;11.90;;;10.07;;
8279;SDS011;8335;42.646;23.380;2023-04-08T14:17:25;10.03;;;8.37;;
8279;SDS011;8335;42.646;23.380;2023-04-08T14:19:53;13.77;;;10.07;;
8279;SDS011;8335;42.646;23.380;2023-04-08T14:22:20;13.80;;;10.53;;
8279;SDS011;8335;42.646;23.380;2023-04-08T14:24:46;13.40;;;10.40;;
8279;SDS011;8335;42.646;23.380;2023-04-08T14:27:13;13.97;;;11.13;;
8279;SDS011;8335;42.646;23.380;2023-04-08T14:29:40;13.47;;;10.67;;
8279;SDS011;8335;42.646;23.380;2023-04-08T14:32:06;15.30;;;10.17;;
8279;SDS011;8335;42.646;23.380;2023-04-08T14:34:33;16.30;;;11.17;;
8279;SDS011;8335;42.646;23.380;2023-04-08T14:37:02;15.03;;;11.00;;
8279;SDS011;8335;42.646;23.380;2023-04-08T14:39:29;14.13;;;10.83;;
8279;SDS011;8335;42.646;23.380;2023-04-08T14:41:56;14.20;;;11.00;;
8279;SDS011;8335;42.646;23.380;2023-04-08T14:44:23;13.23;;;10.30;;
8279;SDS011;8335;42.646;23.380;2023-04-08T14:46:49;12.73;;;10.53;;